Corral City, Texas
Current Conditions -  °F | °C
As of 8:53 AM on Thursday 30 Oct 2014 (Local Time) from KDTO Reporting Station
Clear Clear  
Wind Chill: 53°   Ceiling: Unl
Heat Index: 53°   Visibility: 10mi
Dew Point: 48°   Wind: 0mph
Humidity: 83%   Direction: NA
Pressure: 30.15"   Gusts: NA
Location:  33.108°N, 97.1641°W
Report Text: KDTO 301353Z 00000KT 10SM CLR 12/09 A3015 RMK AO2 SLP208 T01170089
Loading
Personal Weather Stations






























Interactive Weather Map
Tropical Storm Tracking
New forecast layout! Learn more

10-Day Weather Forecast

Advertisements
Track Severe Weather on mobile